IBE03KE KJFK-LEMD
Flight info
| Callsign | IBE03KE |
|---|---|
| Flight time | N/A |
| Altitude | 39000 |
| Route | SHIPP Y487 ISLES DCT JENYY DCT DOVEY/M083F390 DCT 42N060W 43N050W/M083F410 44N040W 44N030W 4330N02000W DCT ARMED/N0481F410 DCT EPOPO DCT ADORO/N0491F430 L155 ZMR |
| Aircraft | A359/H-SDE2E3GHIJ3J4J5LM1ORWXY/LB1D1 |
Departure
| Time | 2026-05-04 15:35 |
|---|---|
| Airport | John F. Kennedy International Airport (KJFK) |
Arrival
| Time | N/A |
|---|---|
| Airport | Adolfo Suárez Madrid–Barajas Airport (LEMD) |
| Time | Latitude | Longitude | Altitude | Speed | Heading |
|---|---|---|---|---|---|
| 2026-05-04 15:03 | 40.64663 | -73.79314 | 30 ft | 0 kts | 337° |
| 2026-05-04 15:22 | 40.64631 | -73.79304 | 29 ft | 4 kts | 22° |
| 2026-05-04 15:23 | 40.64613 | -73.79313 | 29 ft | 4 kts | 333° |
| 2026-05-04 15:23 | 40.64603 | -73.79292 | 28 ft | 4 kts | 265° |
| 2026-05-04 15:23 | 40.64607 | -73.79257 | 29 ft | 4 kts | 260° |
| 2026-05-04 15:23 | 40.64609 | -73.79243 | 26 ft | 0 kts | 260° |
| 2026-05-04 15:26 | 40.64608 | -73.79251 | 29 ft | 5 kts | 261° |
| 2026-05-04 15:27 | 40.64611 | -73.79340 | 29 ft | 13 kts | 279° |
| 2026-05-04 15:27 | 40.64609 | -73.79465 | 30 ft | 5 kts | 264° |
| 2026-05-04 15:28 | 40.64586 | -73.79566 | 30 ft | 9 kts | 243° |
| 2026-05-04 15:28 | 40.64573 | -73.79613 | 30 ft | 2 kts | 275° |
| 2026-05-04 15:28 | 40.64715 | -73.79757 | 30 ft | 24 kts | 327° |
| 2026-05-04 15:29 | 40.64881 | -73.79808 | 30 ft | 25 kts | 0° |
| 2026-05-04 15:30 | 40.65279 | -73.79173 | 30 ft | 24 kts | 105° |
| 2026-05-04 15:30 | 40.65323 | -73.78554 | 29 ft | 25 kts | 62° |
| 2026-05-04 15:31 | 40.65495 | -73.78147 | 27 ft | 21 kts | 82° |
| 2026-05-04 15:31 | 40.65439 | -73.77993 | 28 ft | 20 kts | 120° |
| 2026-05-04 15:32 | 40.65132 | -73.77317 | 30 ft | 32 kts | 121° |
| 2026-05-04 15:32 | 40.64920 | -73.76851 | 27 ft | 16 kts | 120° |
| 2026-05-04 15:33 | 40.64947 | -73.76645 | 27 ft | 19 kts | 31° |
| 2026-05-04 15:34 | 40.65072 | -73.76414 | 29 ft | 12 kts | 121° |
| 2026-05-04 15:34 | 40.65009 | -73.76368 | 29 ft | 11 kts | 200° |
| 2026-05-04 15:34 | 40.64413 | -73.76830 | 28 ft | 111 kts | 212° |
| 2026-05-04 15:35 | 40.62585 | -73.78271 | 682 ft | 162 kts | 212° |
| 2026-05-04 15:35 | 40.61621 | -73.79074 | 1364 ft | 169 kts | 213° |
| 2026-05-04 15:35 | 40.60578 | -73.79984 | 1697 ft | 194 kts | 214° |
| 2026-05-04 15:36 | 40.57976 | -73.82193 | 2254 ft | 252 kts | 212° |
| 2026-05-04 15:36 | 40.56355 | -73.83182 | 2982 ft | 256 kts | 196° |
| 2026-05-04 15:36 | 40.54607 | -73.83412 | 3943 ft | 253 kts | 175° |
| 2026-05-04 15:37 | 40.52940 | -73.82642 | 4591 ft | 262 kts | 144° |
| 2026-05-04 15:37 | 40.51750 | -73.80801 | 5275 ft | 267 kts | 120° |
| 2026-05-04 15:37 | 40.50988 | -73.78593 | 5995 ft | 272 kts | 107° |
| 2026-05-04 15:37 | 40.50580 | -73.76143 | 6777 ft | 276 kts | 99° |
| 2026-05-04 15:38 | 40.50322 | -73.73640 | 7626 ft | 278 kts | 97° |
| 2026-05-04 15:38 | 40.50085 | -73.71109 | 8458 ft | 281 kts | 97° |
| 2026-05-04 15:38 | 40.49782 | -73.68552 | 9474 ft | 284 kts | 103° |
| 2026-05-04 15:38 | 40.49147 | -73.66013 | 9901 ft | 304 kts | 113° |
| 2026-05-04 15:39 | 40.48283 | -73.63398 | 10326 ft | 321 kts | 117° |
| 2026-05-04 15:39 | 40.47261 | -73.60686 | 10680 ft | 341 kts | 120° |
| 2026-05-04 15:39 | 40.44949 | -73.54960 | 11801 ft | 364 kts | 120° |
| 2026-05-04 15:40 | 40.43754 | -73.52009 | 12535 ft | 369 kts | 120° |
| 2026-05-04 15:40 | 40.42547 | -73.49003 | 13277 ft | 375 kts | 120° |
| 2026-05-04 15:40 | 40.41331 | -73.45946 | 13997 ft | 380 kts | 120° |
| 2026-05-04 15:40 | 40.40103 | -73.42846 | 14634 ft | 385 kts | 119° |
| 2026-05-04 15:41 | 40.38868 | -73.39718 | 15245 ft | 391 kts | 119° |
| 2026-05-04 15:41 | 40.37616 | -73.36545 | 15870 ft | 396 kts | 119° |
| 2026-05-04 15:41 | 40.36357 | -73.33359 | 16470 ft | 401 kts | 119° |
| 2026-05-04 15:41 | 40.35061 | -73.30085 | 17111 ft | 407 kts | 119° |
| 2026-05-04 15:42 | 40.33750 | -73.26781 | 17818 ft | 411 kts | 119° |
| 2026-05-04 15:42 | 40.32301 | -73.23537 | 18458 ft | 414 kts | 123° |
| 2026-05-04 15:42 | 40.30768 | -73.20317 | 19078 ft | 417 kts | 124° |
| 2026-05-04 15:42 | 40.29191 | -73.17106 | 19733 ft | 420 kts | 124° |
| 2026-05-04 15:43 | 40.27583 | -73.13886 | 20367 ft | 424 kts | 125° |
| 2026-05-04 15:43 | 40.25957 | -73.10650 | 21011 ft | 427 kts | 125° |
| 2026-05-04 15:43 | 40.24316 | -73.07388 | 21646 ft | 430 kts | 125° |
| 2026-05-04 15:43 | 40.22684 | -73.04140 | 22259 ft | 434 kts | 124° |
| 2026-05-04 15:44 | 40.21020 | -73.00825 | 22877 ft | 437 kts | 124° |
| 2026-05-04 15:44 | 40.19346 | -72.97485 | 23469 ft | 441 kts | 124° |
| 2026-05-04 15:44 | 40.17657 | -72.94117 | 24026 ft | 444 kts | 125° |
| 2026-05-04 15:44 | 40.15963 | -72.90739 | 24564 ft | 446 kts | 125° |
| 2026-05-04 15:45 | 40.14255 | -72.87337 | 25063 ft | 449 kts | 125° |
| 2026-05-04 15:45 | 40.12533 | -72.83915 | 25543 ft | 453 kts | 125° |
| 2026-05-04 15:45 | 40.10797 | -72.80467 | 26034 ft | 456 kts | 125° |
| 2026-05-04 15:45 | 40.09061 | -72.76983 | 26516 ft | 459 kts | 124° |
| 2026-05-04 15:46 | 40.07396 | -72.73397 | 27005 ft | 463 kts | 122° |
| 2026-05-04 15:46 | 40.05775 | -72.69755 | 27492 ft | 466 kts | 121° |
| 2026-05-04 15:46 | 40.04152 | -72.66064 | 27964 ft | 470 kts | 121° |
| 2026-05-04 15:46 | 40.02514 | -72.62354 | 28429 ft | 473 kts | 122° |
| 2026-05-04 15:47 | 40.00853 | -72.58629 | 28865 ft | 476 kts | 123° |
| 2026-05-04 15:47 | 39.99175 | -72.54898 | 29328 ft | 478 kts | 123° |
| 2026-05-04 15:47 | 39.97495 | -72.51192 | 29754 ft | 482 kts | 123° |
| 2026-05-04 15:47 | 39.95782 | -72.47414 | 30157 ft | 485 kts | 123° |
| 2026-05-04 15:48 | 39.94086 | -72.43591 | 30500 ft | 489 kts | 123° |
| 2026-05-04 15:48 | 39.92395 | -72.39733 | 30832 ft | 492 kts | 122° |
| 2026-05-04 15:48 | 39.88986 | -72.31939 | 31491 ft | 498 kts | 123° |
| 2026-05-04 15:49 | 39.87264 | -72.28016 | 31803 ft | 501 kts | 123° |
| 2026-05-04 15:49 | 39.85524 | -72.24066 | 32112 ft | 503 kts | 124° |
| 2026-05-04 15:49 | 39.83776 | -72.20109 | 32408 ft | 506 kts | 124° |
| 2026-05-04 15:49 | 39.82011 | -72.16124 | 32705 ft | 509 kts | 124° |
| 2026-05-04 15:50 | 39.80237 | -72.12126 | 32982 ft | 512 kts | 124° |
| 2026-05-04 15:50 | 39.78453 | -72.08112 | 33254 ft | 514 kts | 124° |
| 2026-05-04 15:50 | 39.76659 | -72.04079 | 33525 ft | 517 kts | 124° |
| 2026-05-04 15:50 | 39.74849 | -72.00015 | 33788 ft | 519 kts | 124° |
| 2026-05-04 15:51 | 39.73049 | -71.95998 | 34033 ft | 521 kts | 124° |
| 2026-05-04 15:51 | 39.71187 | -71.91952 | 34243 ft | 523 kts | 125° |
| 2026-05-04 15:51 | 39.69290 | -71.87896 | 34406 ft | 525 kts | 126° |
| 2026-05-04 15:51 | 39.67382 | -71.83839 | 34650 ft | 526 kts | 126° |
| 2026-05-04 15:52 | 39.65479 | -71.79792 | 34971 ft | 525 kts | 126° |
| 2026-05-04 15:52 | 39.63581 | -71.75748 | 35262 ft | 525 kts | 126° |
| 2026-05-04 15:52 | 39.61686 | -71.71708 | 35536 ft | 525 kts | 126° |
| 2026-05-04 15:52 | 39.59794 | -71.67670 | 35801 ft | 525 kts | 126° |
| 2026-05-04 15:53 | 39.57897 | -71.63622 | 36058 ft | 525 kts | 126° |
| 2026-05-04 15:53 | 39.56000 | -71.59580 | 36312 ft | 525 kts | 126° |
| 2026-05-04 15:53 | 39.54107 | -71.55550 | 36550 ft | 525 kts | 127° |
| 2026-05-04 15:53 | 39.52207 | -71.51508 | 36757 ft | 525 kts | 127° |
| 2026-05-04 15:54 | 39.50304 | -71.47468 | 36972 ft | 526 kts | 127° |
| 2026-05-04 15:54 | 39.48400 | -71.43431 | 37214 ft | 526 kts | 127° |
| 2026-05-04 15:54 | 39.46574 | -71.39306 | 37403 ft | 530 kts | 121° |
| 2026-05-04 15:54 | 39.45159 | -71.34866 | 37612 ft | 537 kts | 112° |
| 2026-05-04 15:55 | 39.44304 | -71.30127 | 37781 ft | 544 kts | 101° |
| 2026-05-04 15:55 | 39.44103 | -71.25217 | 37958 ft | 549 kts | 89° |
| 2026-05-04 15:55 | 39.44565 | -71.20313 | 38140 ft | 552 kts | 81° |
| 2026-05-04 15:55 | 39.45316 | -71.15428 | 38335 ft | 552 kts | 79° |
| 2026-05-04 15:56 | 39.46157 | -71.10579 | 38518 ft | 553 kts | 78° |
| 2026-05-04 15:56 | 39.47032 | -71.05738 | 38703 ft | 553 kts | 78° |
| 2026-05-04 15:56 | 39.47899 | -71.00952 | 38852 ft | 553 kts | 78° |
| 2026-05-04 15:56 | 39.48767 | -70.96091 | 39000 ft | 553 kts | 78° |
| 2026-05-04 15:57 | 39.50461 | -70.86352 | 39107 ft | 554 kts | 78° |
| 2026-05-04 15:57 | 39.52120 | -70.76595 | 39108 ft | 555 kts | 79° |
| 2026-05-04 15:58 | 39.53768 | -70.66818 | 39105 ft | 555 kts | 79° |
| 2026-05-04 15:58 | 39.55407 | -70.57045 | 39108 ft | 555 kts | 79° |
| 2026-05-04 15:59 | 39.57033 | -70.47313 | 39107 ft | 556 kts | 79° |
| 2026-05-04 15:59 | 39.58663 | -70.37504 | 39100 ft | 556 kts | 79° |
| 2026-05-04 16:00 | 39.60287 | -70.27678 | 39109 ft | 557 kts | 79° |
| 2026-05-04 16:00 | 39.61900 | -70.17862 | 39103 ft | 557 kts | 79° |
| 2026-05-04 16:01 | 39.63508 | -70.08019 | 39115 ft | 558 kts | 79° |
| 2026-05-04 16:01 | 39.65109 | -69.98164 | 39105 ft | 558 kts | 79° |
| 2026-05-04 16:02 | 39.66692 | -69.88370 | 39118 ft | 558 kts | 79° |
| 2026-05-04 16:03 | 39.69069 | -69.73554 | 39109 ft | 559 kts | 80° |
| 2026-05-04 16:03 | 39.70645 | -69.63654 | 39109 ft | 560 kts | 80° |
| 2026-05-04 16:04 | 39.72215 | -69.53741 | 39129 ft | 560 kts | 80° |
| 2026-05-04 16:04 | 39.74555 | -69.38857 | 39104 ft | 560 kts | 80° |
| 2026-05-04 16:05 | 39.76096 | -69.28982 | 39107 ft | 560 kts | 80° |
| 2026-05-04 16:06 | 39.78405 | -69.14073 | 39094 ft | 561 kts | 80° |
| 2026-05-04 16:07 | 39.81462 | -68.94130 | 39109 ft | 562 kts | 81° |
| 2026-05-04 16:08 | 39.84474 | -68.74236 | 39104 ft | 563 kts | 81° |
| 2026-05-04 16:09 | 39.88212 | -68.49212 | 39091 ft | 563 kts | 81° |
| 2026-05-04 16:10 | 39.91175 | -68.29090 | 39123 ft | 566 kts | 81° |
| 2026-05-04 16:11 | 39.94364 | -68.14375 | 39091 ft | 566 kts | 61° |
| 2026-05-04 16:11 | 39.96503 | -68.10075 | 39091 ft | 564 kts | 49° |
| 2026-05-04 16:12 | 40.05336 | -68.00340 | 39124 ft | 556 kts | 31° |
| 2026-05-04 16:12 | 40.14845 | -67.91667 | 39096 ft | 555 kts | 30° |
| 2026-05-04 16:13 | 40.27456 | -67.79991 | 39084 ft | 554 kts | 31° |
| 2026-05-04 16:14 | 40.40005 | -67.68226 | 39072 ft | 554 kts | 31° |
| 2026-05-04 16:16 | 40.55621 | -67.53518 | 39044 ft | 553 kts | 31° |
| 2026-05-04 16:17 | 40.70209 | -67.39703 | 39059 ft | 555 kts | 31° |
| 2026-05-04 16:18 | 40.82729 | -67.27784 | 39047 ft | 554 kts | 31° |
| 2026-05-04 16:19 | 40.98304 | -67.12878 | 39042 ft | 553 kts | 31° |
| 2026-05-04 16:20 | 41.07467 | -67.03566 | 39037 ft | 558 kts | 42° |
| 2026-05-04 16:20 | 41.11927 | -66.95140 | 39035 ft | 562 kts | 66° |
| 2026-05-04 16:21 | 41.14958 | -66.80128 | 39029 ft | 563 kts | 80° |
| 2026-05-04 16:22 | 41.16467 | -66.69983 | 39034 ft | 564 kts | 80° |
| 2026-05-04 16:23 | 41.21118 | -66.39329 | 39027 ft | 564 kts | 80° |
| 2026-05-04 16:25 | 41.25767 | -66.08654 | 39032 ft | 567 kts | 80° |
| 2026-05-04 16:26 | 41.31093 | -65.72742 | 39029 ft | 567 kts | 80° |
| 2026-05-04 16:28 | 41.34847 | -65.46924 | 39037 ft | 568 kts | 80° |
| 2026-05-04 16:29 | 41.39996 | -65.10808 | 39026 ft | 570 kts | 81° |
| 2026-05-04 16:31 | 41.43622 | -64.84846 | 39031 ft | 570 kts | 81° |
| 2026-05-04 16:32 | 41.47886 | -64.53727 | 39023 ft | 569 kts | 81° |
| 2026-05-04 16:33 | 41.50683 | -64.32949 | 39012 ft | 568 kts | 81° |
| 2026-05-04 16:34 | 41.52757 | -64.17351 | 39029 ft | 569 kts | 81° |
| 2026-05-04 16:35 | 41.56844 | -63.86107 | 39028 ft | 570 kts | 82° |
| 2026-05-04 16:36 | 41.58857 | -63.70460 | 39016 ft | 570 kts | 82° |
| 2026-05-04 16:37 | 41.60854 | -63.54761 | 39023 ft | 571 kts | 82° |
| 2026-05-04 16:38 | 41.63487 | -63.33791 | 39016 ft | 573 kts | 82° |
| 2026-05-04 16:39 | 41.66727 | -63.07524 | 39020 ft | 574 kts | 82° |
| 2026-05-04 16:40 | 41.69279 | -62.86475 | 39018 ft | 574 kts | 82° |
| 2026-05-04 16:41 | 41.72419 | -62.60096 | 39017 ft | 575 kts | 83° |
| 2026-05-04 16:43 | 41.75503 | -62.33654 | 38989 ft | 573 kts | 83° |
| 2026-05-04 16:43 | 41.77315 | -62.17862 | 39021 ft | 574 kts | 83° |
| 2026-05-04 16:45 | 41.80894 | -61.86069 | 39009 ft | 574 kts | 83° |
| 2026-05-04 16:46 | 41.83799 | -61.59646 | 39008 ft | 574 kts | 84° |
| 2026-05-04 16:47 | 41.86087 | -61.38411 | 39019 ft | 576 kts | 84° |
| 2026-05-04 16:48 | 41.88340 | -61.17135 | 39001 ft | 575 kts | 84° |
| 2026-05-04 16:49 | 41.90543 | -60.95936 | 39001 ft | 575 kts | 84° |
| 2026-05-04 16:50 | 41.92711 | -60.74687 | 39002 ft | 573 kts | 84° |
| 2026-05-04 16:51 | 41.94304 | -60.58815 | 39001 ft | 573 kts | 84° |
| 2026-05-04 16:52 | 41.96404 | -60.37525 | 39024 ft | 576 kts | 84° |
| 2026-05-04 16:53 | 41.97957 | -60.21528 | 39001 ft | 574 kts | 85° |
| 2026-05-04 16:54 | 41.99988 | -60.00227 | 38993 ft | 576 kts | 85° |
| 2026-05-04 16:55 | 42.04537 | -59.68498 | 38991 ft | 576 kts | 80° |
| 2026-05-04 16:56 | 42.08316 | -59.41918 | 38989 ft | 579 kts | 81° |
| 2026-05-04 16:57 | 42.10537 | -59.25959 | 38992 ft | 577 kts | 81° |
| 2026-05-04 16:58 | 42.13460 | -59.04740 | 38992 ft | 580 kts | 81° |
| 2026-05-04 17:00 | 42.17447 | -58.75297 | 38992 ft | 578 kts | 82° |
| 2026-05-04 17:01 | 42.20992 | -58.48595 | 38986 ft | 580 kts | 82° |
| 2026-05-04 17:02 | 42.23792 | -58.27155 | 38985 ft | 580 kts | 82° |
| 2026-05-04 17:03 | 42.25869 | -58.11033 | 38987 ft | 583 kts | 82° |
| 2026-05-04 17:03 | 42.27921 | -57.94923 | 38983 ft | 582 kts | 82° |
| 2026-05-04 17:04 | 42.30623 | -57.73419 | 38984 ft | 581 kts | 82° |
| 2026-05-04 17:05 | 42.33296 | -57.51795 | 38995 ft | 584 kts | 83° |
| 2026-05-04 17:06 | 42.35275 | -57.35570 | 38985 ft | 583 kts | 83° |
| 2026-05-04 17:07 | 42.36802 | -57.22908 | 38949 ft | 583 kts | 83° |
| 2026-05-04 17:07 | 42.38307 | -57.10298 | 38985 ft | 585 kts | 83° |
| 2026-05-04 17:08 | 42.40232 | -56.94007 | 38985 ft | 584 kts | 83° |
| 2026-05-04 17:09 | 42.41502 | -56.83145 | 38982 ft | 583 kts | 83° |
| 2026-05-04 17:09 | 42.42760 | -56.72284 | 38966 ft | 584 kts | 83° |
| 2026-05-04 17:10 | 42.45852 | -56.45206 | 38974 ft | 582 kts | 84° |
| 2026-05-04 17:11 | 42.47070 | -56.34366 | 38972 ft | 582 kts | 84° |
| 2026-05-04 17:12 | 42.48881 | -56.18080 | 38972 ft | 582 kts | 84° |
| 2026-05-04 17:13 | 42.51837 | -55.91024 | 38971 ft | 580 kts | 84° |
| 2026-05-04 17:14 | 42.54146 | -55.69440 | 38967 ft | 581 kts | 84° |
| 2026-05-04 17:15 | 42.55859 | -55.53183 | 38970 ft | 579 kts | 85° |
| 2026-05-04 17:16 | 42.58100 | -55.31548 | 38974 ft | 579 kts | 85° |
| 2026-05-04 17:17 | 42.60296 | -55.09936 | 38971 ft | 580 kts | 85° |
| 2026-05-04 17:18 | 42.62461 | -54.88229 | 38974 ft | 580 kts | 85° |
| 2026-05-04 17:19 | 42.64575 | -54.66594 | 38976 ft | 580 kts | 86° |
| 2026-05-04 17:20 | 42.66657 | -54.44865 | 38972 ft | 580 kts | 86° |
| 2026-05-04 17:20 | 42.68192 | -54.28545 | 38975 ft | 580 kts | 86° |
| 2026-05-04 17:21 | 42.70203 | -54.06767 | 38985 ft | 581 kts | 86° |
| 2026-05-04 17:22 | 42.71196 | -53.95850 | 38979 ft | 581 kts | 86° |
| 2026-05-04 17:23 | 42.73141 | -53.74100 | 38946 ft | 581 kts | 86° |
| 2026-05-04 17:24 | 42.74580 | -53.57691 | 38981 ft | 583 kts | 86° |
| 2026-05-04 17:25 | 42.76468 | -53.35750 | 38987 ft | 583 kts | 87° |
| 2026-05-04 17:26 | 42.78310 | -53.13837 | 38991 ft | 582 kts | 87° |
| 2026-05-04 17:27 | 42.80550 | -52.86467 | 38987 ft | 583 kts | 87° |
| 2026-05-04 17:28 | 42.82297 | -52.64551 | 38992 ft | 582 kts | 88° |
| 2026-05-04 17:29 | 42.84839 | -52.31614 | 39000 ft | 582 kts | 88° |
| 2026-05-04 17:31 | 42.86880 | -52.04237 | 38998 ft | 582 kts | 88° |
| 2026-05-04 17:32 | 42.88862 | -51.76758 | 39001 ft | 581 kts | 89° |
| 2026-05-04 17:33 | 42.90394 | -51.54871 | 39006 ft | 583 kts | 89° |
| 2026-05-04 17:34 | 42.91895 | -51.32892 | 39016 ft | 582 kts | 89° |
| 2026-05-04 17:35 | 42.93701 | -51.05434 | 39012 ft | 580 kts | 89° |
| 2026-05-04 17:36 | 42.94404 | -50.94462 | 39010 ft | 580 kts | 89° |
| 2026-05-04 17:36 | 42.95098 | -50.83468 | 39016 ft | 580 kts | 89° |
| 2026-05-04 17:37 | 42.95778 | -50.72523 | 39017 ft | 578 kts | 90° |
| 2026-05-04 17:37 | 42.96448 | -50.61570 | 39013 ft | 579 kts | 90° |
| 2026-05-04 17:38 | 42.97103 | -50.50672 | 39011 ft | 579 kts | 90° |
| 2026-05-04 17:38 | 42.97753 | -50.39708 | 39012 ft | 579 kts | 90° |
| 2026-05-04 17:39 | 42.98708 | -50.23280 | 39016 ft | 577 kts | 90° |
| 2026-05-04 17:39 | 42.99329 | -50.12348 | 39008 ft | 578 kts | 90° |
| 2026-05-04 17:40 | 42.99983 | -50.01389 | 39084 ft | 582 kts | 86° |
| 2026-05-04 17:40 | 43.00629 | -49.96002 | 39235 ft | 583 kts | 83° |
| 2026-05-04 17:40 | 43.01363 | -49.90547 | 39456 ft | 582 kts | 82° |
| 2026-05-04 17:41 | 43.02131 | -49.85133 | 39741 ft | 579 kts | 82° |
| 2026-05-04 17:41 | 43.02914 | -49.79751 | 40019 ft | 576 kts | 82° |
| 2026-05-04 17:41 | 43.03699 | -49.74388 | 40211 ft | 575 kts | 82° |
| 2026-05-04 17:41 | 43.04479 | -49.69031 | 40377 ft | 574 kts | 82° |
| 2026-05-04 17:42 | 43.05254 | -49.63661 | 40527 ft | 573 kts | 82° |
| 2026-05-04 17:42 | 43.06020 | -49.58302 | 40609 ft | 574 kts | 82° |
| 2026-05-04 17:42 | 43.07536 | -49.47582 | 40879 ft | 573 kts | 82° |
| 2026-05-04 17:43 | 43.08279 | -49.42299 | 41007 ft | 573 kts | 82° |
| 2026-05-04 17:43 | 43.09039 | -49.36872 | 41019 ft | 574 kts | 82° |
| 2026-05-04 17:43 | 43.10534 | -49.26137 | 41017 ft | 574 kts | 82° |
| 2026-05-04 17:44 | 43.12019 | -49.15406 | 41018 ft | 574 kts | 82° |
| 2026-05-04 17:44 | 43.13486 | -49.04732 | 41016 ft | 574 kts | 82° |
| 2026-05-04 17:45 | 43.14949 | -48.93998 | 41015 ft | 574 kts | 82° |
| 2026-05-04 17:45 | 43.16406 | -48.83244 | 41023 ft | 574 kts | 82° |
| 2026-05-04 17:46 | 43.17854 | -48.72473 | 41023 ft | 574 kts | 82° |
| 2026-05-04 17:46 | 43.19291 | -48.61702 | 41023 ft | 573 kts | 82° |
| 2026-05-04 17:47 | 43.20715 | -48.50948 | 41023 ft | 572 kts | 82° |
| 2026-05-04 17:47 | 43.22126 | -48.40205 | 41018 ft | 572 kts | 82° |
| 2026-05-04 17:48 | 43.23527 | -48.29459 | 41015 ft | 573 kts | 82° |
| 2026-05-04 17:48 | 43.24910 | -48.18772 | 41021 ft | 571 kts | 82° |
| 2026-05-04 17:49 | 43.26288 | -48.08049 | 41018 ft | 570 kts | 82° |
| 2026-05-04 17:49 | 43.27652 | -47.97341 | 41015 ft | 570 kts | 82° |
| 2026-05-04 17:50 | 43.29007 | -47.86622 | 41017 ft | 570 kts | 83° |
| 2026-05-04 17:50 | 43.30352 | -47.75906 | 41014 ft | 569 kts | 83° |
| 2026-05-04 17:51 | 43.31684 | -47.65199 | 41017 ft | 569 kts | 83° |
| 2026-05-04 17:51 | 43.33008 | -47.54474 | 41013 ft | 569 kts | 83° |
| 2026-05-04 17:52 | 43.34323 | -47.43740 | 41019 ft | 569 kts | 83° |
| 2026-05-04 17:52 | 43.35627 | -47.33013 | 41018 ft | 568 kts | 83° |
| 2026-05-04 17:53 | 43.36909 | -47.22378 | 41015 ft | 567 kts | 83° |
| 2026-05-04 17:53 | 43.38191 | -47.11654 | 40978 ft | 567 kts | 83° |
| 2026-05-04 17:54 | 43.39461 | -47.00934 | 41013 ft | 569 kts | 83° |
| 2026-05-04 17:54 | 43.40716 | -46.90257 | 41008 ft | 568 kts | 83° |
| 2026-05-04 17:55 | 43.41757 | -46.81336 | 41000 ft | 567 kts | 83° |
| 2026-05-04 17:55 | 43.42999 | -46.70613 | 41005 ft | 567 kts | 83° |
| 2026-05-04 17:56 | 43.44230 | -46.59880 | 41006 ft | 567 kts | 83° |
| 2026-05-04 17:56 | 43.45450 | -46.49165 | 41004 ft | 566 kts | 83° |
| 2026-05-04 17:57 | 43.46656 | -46.38473 | 41006 ft | 566 kts | 83° |
| 2026-05-04 17:57 | 43.47855 | -46.27754 | 40997 ft | 566 kts | 83° |
| 2026-05-04 17:58 | 43.49045 | -46.17027 | 41007 ft | 566 kts | 83° |
| 2026-05-04 17:58 | 43.50214 | -46.06392 | 40999 ft | 564 kts | 83° |
| 2026-05-04 17:59 | 43.51377 | -45.95721 | 40994 ft | 563 kts | 83° |
| 2026-05-04 18:00 | 43.53100 | -45.79714 | 40993 ft | 563 kts | 83° |
| 2026-05-04 18:00 | 43.54239 | -45.69015 | 41004 ft | 565 kts | 83° |
| 2026-05-04 18:01 | 43.55369 | -45.58306 | 41005 ft | 563 kts | 83° |
| 2026-05-04 18:01 | 43.56487 | -45.47620 | 41003 ft | 562 kts | 83° |
| 2026-05-04 18:02 | 43.58136 | -45.31666 | 41016 ft | 562 kts | 83° |
| 2026-05-04 18:02 | 43.59226 | -45.20982 | 41018 ft | 561 kts | 83° |
| 2026-05-04 18:03 | 43.60304 | -45.10326 | 41018 ft | 560 kts | 83° |
| 2026-05-04 18:03 | 43.61372 | -44.99682 | 41026 ft | 559 kts | 83° |
| 2026-05-04 18:04 | 43.62428 | -44.89042 | 41031 ft | 559 kts | 84° |
| 2026-05-04 18:05 | 43.63987 | -44.73138 | 41043 ft | 559 kts | 84° |
| 2026-05-04 18:05 | 43.65019 | -44.62482 | 41042 ft | 559 kts | 84° |
| 2026-05-04 18:06 | 43.66549 | -44.46480 | 41051 ft | 561 kts | 84° |
| 2026-05-04 18:06 | 43.67559 | -44.35791 | 41056 ft | 560 kts | 83° |
| 2026-05-04 18:07 | 43.68556 | -44.25131 | 41067 ft | 559 kts | 84° |
| 2026-05-04 18:07 | 43.69535 | -44.14545 | 41066 ft | 559 kts | 84° |
| 2026-05-04 18:08 | 43.70512 | -44.03878 | 41078 ft | 559 kts | 84° |
| 2026-05-04 18:08 | 43.71477 | -43.93220 | 41077 ft | 557 kts | 84° |
| 2026-05-04 18:09 | 43.73374 | -43.71950 | 41091 ft | 557 kts | 83° |
| 2026-05-04 18:10 | 43.74302 | -43.61382 | 41088 ft | 557 kts | 84° |
| 2026-05-04 18:10 | 43.75225 | -43.50739 | 41103 ft | 555 kts | 83° |